sensor_id;sensor_type;location;lat;lon;timestamp;pressure;altitude;pressure_sealevel;temperature;humidity
4981;BME280;2507;50.392;7.482;2023-03-21T00:02:09;100987.22;;;12.35;57.97
4981;BME280;2507;50.392;7.482;2023-03-21T00:04:34;100975.34;;;12.29;58.13
4981;BME280;2507;50.392;7.482;2023-03-21T00:07:00;100976.41;;;12.27;58.46
4981;BME280;2507;50.392;7.482;2023-03-21T00:09:25;100982.59;;;12.26;58.82
4981;BME280;2507;50.392;7.482;2023-03-21T00:11:51;100979.34;;;12.22;58.47
4981;BME280;2507;50.392;7.482;2023-03-21T00:14:16;100979.78;;;12.29;58.05
4981;BME280;2507;50.392;7.482;2023-03-21T00:16:45;100979.84;;;12.27;57.97
4981;BME280;2507;50.392;7.482;2023-03-21T00:19:15;100972.63;;;12.18;58.60
4981;BME280;2507;50.392;7.482;2023-03-21T00:21:40;100972.81;;;12.28;57.97
4981;BME280;2507;50.392;7.482;2023-03-21T00:24:07;100979.91;;;12.15;58.43
4981;BME280;2507;50.392;7.482;2023-03-21T00:26:32;100973.88;;;12.25;58.09
4981;BME280;2507;50.392;7.482;2023-03-21T00:28:58;100978.31;;;12.25;58.20
4981;BME280;2507;50.392;7.482;2023-03-21T00:31:23;100964.69;;;12.31;57.86
4981;BME280;2507;50.392;7.482;2023-03-21T00:33:49;100974.94;;;12.23;58.09
4981;BME280;2507;50.392;7.482;2023-03-21T00:36:14;100974.94;;;12.23;58.36
4981;BME280;2507;50.392;7.482;2023-03-21T00:38:40;100967.78;;;12.25;58.29
4981;BME280;2507;50.392;7.482;2023-03-21T00:41:08;100971.97;;;12.27;58.23
4981;BME280;2507;50.392;7.482;2023-03-21T00:43:34;100969.13;;;12.30;58.07
4981;BME280;2507;50.392;7.482;2023-03-21T00:45:59;100962.69;;;12.34;57.84
4981;BME280;2507;50.392;7.482;2023-03-21T00:48:25;100958.56;;;12.43;57.61
4981;BME280;2507;50.392;7.482;2023-03-21T00:50:53;100958.50;;;12.56;57.26
4981;BME280;2507;50.392;7.482;2023-03-21T00:53:19;100948.81;;;12.56;57.02
4981;BME280;2507;50.392;7.482;2023-03-21T00:55:45;100951.41;;;12.45;57.74
4981;BME280;2507;50.392;7.482;2023-03-21T00:58:10;100950.44;;;12.46;57.56
4981;BME280;2507;50.392;7.482;2023-03-21T01:00:36;100952.25;;;12.33;58.06
4981;BME280;2507;50.392;7.482;2023-03-21T01:03:02;100945.59;;;12.40;57.62
4981;BME280;2507;50.392;7.482;2023-03-21T01:05:47;100947.78;;;12.46;57.53
4981;BME280;2507;50.392;7.482;2023-03-21T01:08:30;100945.00;;;12.37;57.79
4981;BME280;2507;50.392;7.482;2023-03-21T01:10:55;100934.63;;;12.46;57.75
4981;BME280;2507;50.392;7.482;2023-03-21T01:13:23;100935.06;;;12.40;57.72
4981;BME280;2507;50.392;7.482;2023-03-21T01:15:51;100945.84;;;12.37;57.94
4981;BME280;2507;50.392;7.482;2023-03-21T01:18:18;100938.28;;;12.32;58.27
4981;BME280;2507;50.392;7.482;2023-03-21T01:20:45;100939.91;;;12.46;58.13
4981;BME280;2507;50.392;7.482;2023-03-21T01:23:12;100940.41;;;12.51;57.84
4981;BME280;2507;50.392;7.482;2023-03-21T01:25:37;100936.41;;;12.46;57.73
4981;BME280;2507;50.392;7.482;2023-03-21T01:28:03;100937.50;;;12.43;58.05
4981;BME280;2507;50.392;7.482;2023-03-21T01:30:29;100933.78;;;12.46;57.96
4981;BME280;2507;50.392;7.482;2023-03-21T01:32:54;100934.25;;;12.40;58.05
4981;BME280;2507;50.392;7.482;2023-03-21T01:35:20;100930.78;;;12.39;58.15
4981;BME280;2507;50.392;7.482;2023-03-21T01:37:45;100929.03;;;12.27;58.66
4981;BME280;2507;50.392;7.482;2023-03-21T01:40:17;100925.00;;;12.34;58.07
4981;BME280;2507;50.392;7.482;2023-03-21T01:42:43;100925.56;;;12.26;58.46
4981;BME280;2507;50.392;7.482;2023-03-21T01:48:12;100925.22;;;12.31;58.73
4981;BME280;2507;50.392;7.482;2023-03-21T01:50:39;100921.66;;;12.32;58.40
4981;BME280;2507;50.392;7.482;2023-03-21T01:53:05;100915.34;;;12.22;59.17
4981;BME280;2507;50.392;7.482;2023-03-21T01:55:31;100909.38;;;12.20;59.03
4981;BME280;2507;50.392;7.482;2023-03-21T01:57:58;100914.69;;;12.31;58.83
4981;BME280;2507;50.392;7.482;2023-03-21T02:00:26;100906.47;;;12.36;58.73
4981;BME280;2507;50.392;7.482;2023-03-21T02:02:53;100909.22;;;12.34;58.66
4981;BME280;2507;50.392;7.482;2023-03-21T02:08:07;100905.69;;;12.22;58.81
4981;BME280;2507;50.392;7.482;2023-03-21T02:10:32;100890.31;;;12.29;58.56
4981;BME280;2507;50.392;7.482;2023-03-21T02:13:02;100889.09;;;12.33;58.78
4981;BME280;2507;50.392;7.482;2023-03-21T02:15:34;100878.69;;;12.31;58.68
4981;BME280;2507;50.392;7.482;2023-03-21T02:18:13;100881.56;;;12.28;58.78
4981;BME280;2507;50.392;7.482;2023-03-21T02:21:06;100874.78;;;12.37;58.66
4981;BME280;2507;50.392;7.482;2023-03-21T02:29:26;100867.00;;;12.36;58.89
4981;BME280;2507;50.392;7.482;2023-03-21T02:37:19;100852.00;;;12.25;59.28
4981;BME280;2507;50.392;7.482;2023-03-21T02:48:04;100856.50;;;12.12;59.64
4981;BME280;2507;50.392;7.482;2023-03-21T02:50:39;100851.00;;;12.15;59.68
4981;BME280;2507;50.392;7.482;2023-03-21T02:53:07;100848.72;;;12.10;59.63
4981;BME280;2507;50.392;7.482;2023-03-21T02:55:36;100850.31;;;12.24;59.12
4981;BME280;2507;50.392;7.482;2023-03-21T02:58:05;100852.56;;;12.17;59.25
4981;BME280;2507;50.392;7.482;2023-03-21T03:00:32;100853.31;;;11.96;60.08
4981;BME280;2507;50.392;7.482;2023-03-21T03:02:58;100851.41;;;11.98;60.12
4981;BME280;2507;50.392;7.482;2023-03-21T03:05:27;100842.66;;;11.97;59.98
4981;BME280;2507;50.392;7.482;2023-03-21T03:10:55;100845.22;;;11.86;60.21
4981;BME280;2507;50.392;7.482;2023-03-21T03:13:34;100842.91;;;11.82;60.74
4981;BME280;2507;50.392;7.482;2023-03-21T03:16:18;100839.03;;;11.75;60.72
4981;BME280;2507;50.392;7.482;2023-03-21T03:18:58;100841.78;;;11.73;61.17
4981;BME280;2507;50.392;7.482;2023-03-21T03:21:40;100836.25;;;11.65;61.46
4981;BME280;2507;50.392;7.482;2023-03-21T03:24:25;100836.25;;;11.65;61.39
4981;BME280;2507;50.392;7.482;2023-03-21T03:29:29;100828.69;;;11.48;61.94
4981;BME280;2507;50.392;7.482;2023-03-21T03:31:59;100833.44;;;11.43;61.94
4981;BME280;2507;50.392;7.482;2023-03-21T03:34:31;100832.94;;;11.38;62.12
4981;BME280;2507;50.392;7.482;2023-03-21T03:37:00;100832.84;;;11.14;63.06
4981;BME280;2507;50.392;7.482;2023-03-21T03:39:38;100835.78;;;11.22;62.69
4981;BME280;2507;50.392;7.482;2023-03-21T03:42:07;100826.50;;;11.29;62.81
4981;BME280;2507;50.392;7.482;2023-03-21T03:44:38;100830.22;;;11.27;62.33
4981;BME280;2507;50.392;7.482;2023-03-21T03:47:15;100829.16;;;11.17;63.01
4981;BME280;2507;50.392;7.482;2023-03-21T03:49:51;100841.16;;;11.08;63.33
4981;BME280;2507;50.392;7.482;2023-03-21T03:52:25;100834.41;;;11.04;63.28
4981;BME280;2507;50.392;7.482;2023-03-21T03:54:52;100840.00;;;11.00;63.85
4981;BME280;2507;50.392;7.482;2023-03-21T03:57:18;100839.34;;;10.96;63.87
4981;BME280;2507;50.392;7.482;2023-03-21T03:59:45;100837.38;;;11.12;63.10
4981;BME280;2507;50.392;7.482;2023-03-21T04:02:11;100835.38;;;10.91;64.06
4981;BME280;2507;50.392;7.482;2023-03-21T04:04:37;100835.97;;;10.69;64.94
4981;BME280;2507;50.392;7.482;2023-03-21T04:07:03;100837.34;;;10.62;65.78
4981;BME280;2507;50.392;7.482;2023-03-21T04:09:28;100839.22;;;10.60;66.04
4981;BME280;2507;50.392;7.482;2023-03-21T04:11:55;100824.75;;;10.67;65.70
4981;BME280;2507;50.392;7.482;2023-03-21T04:14:20;100831.47;;;10.59;65.74
4981;BME280;2507;50.392;7.482;2023-03-21T04:16:46;100832.72;;;10.66;66.10
4981;BME280;2507;50.392;7.482;2023-03-21T04:19:11;100824.09;;;10.64;65.88
4981;BME280;2507;50.392;7.482;2023-03-21T04:21:37;100824.44;;;10.72;65.90
4981;BME280;2507;50.392;7.482;2023-03-21T04:24:02;100821.59;;;10.75;65.78
4981;BME280;2507;50.392;7.482;2023-03-21T04:26:28;100824.78;;;10.80;65.89
4981;BME280;2507;50.392;7.482;2023-03-21T04:28:57;100822.97;;;10.80;66.01
4981;BME280;2507;50.392;7.482;2023-03-21T04:31:25;100818.47;;;10.82;65.86
4981;BME280;2507;50.392;7.482;2023-03-21T04:33:51;100820.03;;;10.85;66.15
4981;BME280;2507;50.392;7.482;2023-03-21T04:36:17;100817.63;;;10.94;65.81
4981;BME280;2507;50.392;7.482;2023-03-21T04:39:04;100813.31;;;10.93;66.05
4981;BME280;2507;50.392;7.482;2023-03-21T04:41:39;100815.63;;;10.98;66.14
4981;BME280;2507;50.392;7.482;2023-03-21T04:44:05;100815.19;;;11.04;65.79
4981;BME280;2507;50.392;7.482;2023-03-21T04:46:30;100824.03;;;11.03;65.93
4981;BME280;2507;50.392;7.482;2023-03-21T04:48:55;100814.88;;;11.08;66.18
4981;BME280;2507;50.392;7.482;2023-03-21T04:51:21;100820.44;;;11.16;65.83
4981;BME280;2507;50.392;7.482;2023-03-21T04:53:46;100814.88;;;11.21;65.86
4981;BME280;2507;50.392;7.482;2023-03-21T04:56:13;100811.50;;;11.31;65.08
4981;BME280;2507;50.392;7.482;2023-03-21T04:58:40;100822.09;;;11.30;64.94
4981;BME280;2507;50.392;7.482;2023-03-21T05:01:06;100823.91;;;11.04;65.96
4981;BME280;2507;50.392;7.482;2023-03-21T05:03:32;100824.34;;;10.98;66.06
4981;BME280;2507;50.392;7.482;2023-03-21T05:06:05;100819.41;;;10.94;66.21
4981;BME280;2507;50.392;7.482;2023-03-21T05:08:32;100814.97;;;10.82;67.07
4981;BME280;2507;50.392;7.482;2023-03-21T05:10:58;100818.06;;;10.88;66.99
4981;BME280;2507;50.392;7.482;2023-03-21T05:13:23;100822.97;;;10.93;67.11
4981;BME280;2507;50.392;7.482;2023-03-21T05:15:48;100813.53;;;11.03;67.44
4981;BME280;2507;50.392;7.482;2023-03-21T05:18:13;100812.78;;;11.01;66.78
4981;BME280;2507;50.392;7.482;2023-03-21T05:20:40;100819.41;;;11.06;67.14
4981;BME280;2507;50.392;7.482;2023-03-21T05:23:09;100815.81;;;11.20;66.58
4981;BME280;2507;50.392;7.482;2023-03-21T05:25:36;100813.91;;;11.22;66.36
4981;BME280;2507;50.392;7.482;2023-03-21T05:28:04;100811.13;;;11.12;66.70
4981;BME280;2507;50.392;7.482;2023-03-21T05:30:30;100812.16;;;11.10;66.87
4981;BME280;2507;50.392;7.482;2023-03-21T05:32:56;100811.94;;;11.13;67.42
4981;BME280;2507;50.392;7.482;2023-03-21T05:35:21;100811.19;;;11.11;67.91
4981;BME280;2507;50.392;7.482;2023-03-21T05:37:46;100814.53;;;11.25;67.24
4981;BME280;2507;50.392;7.482;2023-03-21T05:40:12;100812.41;;;11.43;66.53
4981;BME280;2507;50.392;7.482;2023-03-21T05:42:37;100817.94;;;11.51;66.84
4981;BME280;2507;50.392;7.482;2023-03-21T05:45:03;100815.03;;;11.43;67.14
4981;BME280;2507;50.392;7.482;2023-03-21T05:47:28;100813.94;;;11.58;66.52
4981;BME280;2507;50.392;7.482;2023-03-21T05:49:53;100825.53;;;11.56;66.31
4981;BME280;2507;50.392;7.482;2023-03-21T05:52:19;100823.25;;;11.39;67.55
4981;BME280;2507;50.392;7.482;2023-03-21T05:54:44;100823.03;;;11.42;67.30
4981;BME280;2507;50.392;7.482;2023-03-21T05:57:09;100819.34;;;11.44;67.63
4981;BME280;2507;50.392;7.482;2023-03-21T05:59:35;100823.16;;;11.64;67.62
4981;BME280;2507;50.392;7.482;2023-03-21T06:02:00;100828.22;;;11.79;67.19
4981;BME280;2507;50.392;7.482;2023-03-21T06:04:26;100833.06;;;11.73;66.69
4981;BME280;2507;50.392;7.482;2023-03-21T06:06:51;100837.88;;;11.79;66.28
4981;BME280;2507;50.392;7.482;2023-03-21T06:09:18;100828.94;;;11.81;66.28
4981;BME280;2507;50.392;7.482;2023-03-21T06:11:47;100829.06;;;11.80;66.15
4981;BME280;2507;50.392;7.482;2023-03-21T06:14:12;100833.78;;;11.75;66.31
4981;BME280;2507;50.392;7.482;2023-03-21T06:16:38;100835.88;;;11.82;66.09
4981;BME280;2507;50.392;7.482;2023-03-21T06:19:03;100838.19;;;11.87;66.26
4981;BME280;2507;50.392;7.482;2023-03-21T06:21:28;100838.75;;;12.03;65.88
4981;BME280;2507;50.392;7.482;2023-03-21T06:23:53;100831.63;;;12.16;65.69
4981;BME280;2507;50.392;7.482;2023-03-21T06:26:19;100828.94;;;12.28;65.17
4981;BME280;2507;50.392;7.482;2023-03-21T06:28:48;100830.53;;;12.42;64.53
4981;BME280;2507;50.392;7.482;2023-03-21T06:31:13;100834.66;;;12.57;64.49
4981;BME280;2507;50.392;7.482;2023-03-21T06:33:38;100839.94;;;12.68;63.68
4981;BME280;2507;50.392;7.482;2023-03-21T06:36:04;100833.25;;;12.75;63.37
4981;BME280;2507;50.392;7.482;2023-03-21T06:38:29;100837.59;;;12.76;62.99
4981;BME280;2507;50.392;7.482;2023-03-21T06:40:56;100839.91;;;12.57;62.46
4981;BME280;2507;50.392;7.482;2023-03-21T06:43:21;100844.22;;;12.58;63.35
4981;BME280;2507;50.392;7.482;2023-03-21T06:45:46;100834.69;;;12.33;63.97
4981;BME280;2507;50.392;7.482;2023-03-21T06:48:12;100842.91;;;12.18;64.91
4981;BME280;2507;50.392;7.482;2023-03-21T06:50:37;100840.25;;;12.42;64.97
4981;BME280;2507;50.392;7.482;2023-03-21T06:53:02;100846.34;;;12.53;64.33
4981;BME280;2507;50.392;7.482;2023-03-21T06:55:27;100839.25;;;12.77;63.20
4981;BME280;2507;50.392;7.482;2023-03-21T06:57:54;100845.03;;;12.93;62.91
4981;BME280;2507;50.392;7.482;2023-03-21T07:00:20;100836.25;;;12.82;62.73
4981;BME280;2507;50.392;7.482;2023-03-21T07:02:46;100836.63;;;12.77;63.62
4981;BME280;2507;50.392;7.482;2023-03-21T07:05:12;100834.44;;;12.71;63.36
4981;BME280;2507;50.392;7.482;2023-03-21T07:07:38;100843.59;;;12.55;64.30
4981;BME280;2507;50.392;7.482;2023-03-21T07:10:05;100828.00;;;12.41;64.56
4981;BME280;2507;50.392;7.482;2023-03-21T07:12:31;100827.06;;;12.42;65.24
4981;BME280;2507;50.392;7.482;2023-03-21T07:15:02;100833.53;;;12.38;64.29
4981;BME280;2507;50.392;7.482;2023-03-21T07:17:28;100834.00;;;12.43;64.69
4981;BME280;2507;50.392;7.482;2023-03-21T07:19:54;100839.88;;;12.46;64.42
4981;BME280;2507;50.392;7.482;2023-03-21T07:22:20;100836.56;;;12.55;64.23
4981;BME280;2507;50.392;7.482;2023-03-21T07:24:45;100843.81;;;12.41;64.63
4981;BME280;2507;50.392;7.482;2023-03-21T07:27:17;100846.19;;;12.44;65.67
4981;BME280;2507;50.392;7.482;2023-03-21T07:29:43;100842.28;;;12.49;65.18
4981;BME280;2507;50.392;7.482;2023-03-21T07:32:10;100846.59;;;12.50;65.11
4981;BME280;2507;50.392;7.482;2023-03-21T07:34:35;100837.00;;;12.49;64.49
4981;BME280;2507;50.392;7.482;2023-03-21T07:37:02;100838.03;;;12.70;64.92
4981;BME280;2507;50.392;7.482;2023-03-21T07:39:27;100836.63;;;12.77;64.54
4981;BME280;2507;50.392;7.482;2023-03-21T07:41:53;100834.94;;;12.87;63.92
4981;BME280;2507;50.392;7.482;2023-03-21T07:44:20;100834.00;;;12.88;64.46
4981;BME280;2507;50.392;7.482;2023-03-21T07:46:45;100845.16;;;12.92;64.41
4981;BME280;2507;50.392;7.482;2023-03-21T07:49:11;100836.88;;;12.96;65.27
4981;BME280;2507;50.392;7.482;2023-03-21T07:51:36;100838.63;;;13.19;63.96
4981;BME280;2507;50.392;7.482;2023-03-21T07:54:01;100850.47;;;13.25;64.40
4981;BME280;2507;50.392;7.482;2023-03-21T07:56:27;100853.22;;;13.34;64.28
4981;BME280;2507;50.392;7.482;2023-03-21T07:58:52;100857.28;;;13.27;64.92
4981;BME280;2507;50.392;7.482;2023-03-21T08:01:18;100860.78;;;13.39;64.68
4981;BME280;2507;50.392;7.482;2023-03-21T08:03:43;100866.19;;;13.38;65.52
4981;BME280;2507;50.392;7.482;2023-03-21T08:06:08;100863.28;;;13.18;65.58
4981;BME280;2507;50.392;7.482;2023-03-21T08:08:34;100863.41;;;13.39;65.21
4981;BME280;2507;50.392;7.482;2023-03-21T08:10:59;100857.91;;;13.31;64.92
4981;BME280;2507;50.392;7.482;2023-03-21T08:13:25;100869.03;;;13.34;65.63
4981;BME280;2507;50.392;7.482;2023-03-21T08:15:50;100865.69;;;13.44;65.55
4981;BME280;2507;50.392;7.482;2023-03-21T08:18:15;100876.94;;;13.34;65.54
4981;BME280;2507;50.392;7.482;2023-03-21T08:20:41;100868.56;;;13.41;65.36
4981;BME280;2507;50.392;7.482;2023-03-21T08:23:06;100872.38;;;13.37;66.32
4981;BME280;2507;50.392;7.482;2023-03-21T08:25:32;100874.44;;;13.33;66.68
4981;BME280;2507;50.392;7.482;2023-03-21T08:27:58;100878.38;;;13.39;67.31
4981;BME280;2507;50.392;7.482;2023-03-21T08:30:25;100876.84;;;13.25;67.68
4981;BME280;2507;50.392;7.482;2023-03-21T08:32:55;100882.13;;;13.36;67.94
4981;BME280;2507;50.392;7.482;2023-03-21T08:35:21;100879.72;;;13.55;67.34
4981;BME280;2507;50.392;7.482;2023-03-21T08:37:47;100878.63;;;13.36;68.13
4981;BME280;2507;50.392;7.482;2023-03-21T08:40:16;100880.19;;;13.49;67.51
4981;BME280;2507;50.392;7.482;2023-03-21T08:42:43;100875.03;;;13.48;67.38
4981;BME280;2507;50.392;7.482;2023-03-21T08:45:10;100875.28;;;13.45;67.40
4981;BME280;2507;50.392;7.482;2023-03-21T08:47:35;100875.97;;;13.02;68.23
4981;BME280;2507;50.392;7.482;2023-03-21T08:50:01;100875.78;;;12.93;69.49
4981;BME280;2507;50.392;7.482;2023-03-21T08:52:28;100877.78;;;12.67;70.60
4981;BME280;2507;50.392;7.482;2023-03-21T08:54:53;100865.75;;;12.52;72.13
4981;BME280;2507;50.392;7.482;2023-03-21T08:57:19;100870.06;;;12.53;72.92
4981;BME280;2507;50.392;7.482;2023-03-21T08:59:44;100867.19;;;13.02;71.23
4981;BME280;2507;50.392;7.482;2023-03-21T09:02:13;100869.88;;;13.46;68.88
4981;BME280;2507;50.392;7.482;2023-03-21T09:04:40;100869.75;;;13.59;67.65
4981;BME280;2507;50.392;7.482;2023-03-21T09:07:05;100869.53;;;13.62;68.09
4981;BME280;2507;50.392;7.482;2023-03-21T09:09:31;100869.41;;;13.74;67.78
4981;BME280;2507;50.392;7.482;2023-03-21T09:11:57;100869.63;;;13.71;67.83
4981;BME280;2507;50.392;7.482;2023-03-21T09:14:22;100871.53;;;13.69;68.29
4981;BME280;2507;50.392;7.482;2023-03-21T09:16:47;100877.44;;;13.51;68.72
4981;BME280;2507;50.392;7.482;2023-03-21T09:19:13;100873.13;;;13.61;68.73
4981;BME280;2507;50.392;7.482;2023-03-21T09:21:38;100865.78;;;13.75;68.55
4981;BME280;2507;50.392;7.482;2023-03-21T09:24:04;100865.44;;;13.80;68.25
4981;BME280;2507;50.392;7.482;2023-03-21T09:26:30;100867.97;;;13.59;69.07
4981;BME280;2507;50.392;7.482;2023-03-21T09:28:56;100860.75;;;13.06;72.85
4981;BME280;2507;50.392;7.482;2023-03-21T09:31:23;100861.03;;;13.25;71.49
4981;BME280;2507;50.392;7.482;2023-03-21T09:33:49;100870.59;;;13.37;71.78
4981;BME280;2507;50.392;7.482;2023-03-21T09:36:15;100871.56;;;13.25;72.41
4981;BME280;2507;50.392;7.482;2023-03-21T09:38:43;100873.00;;;13.51;71.27
4981;BME280;2507;50.392;7.482;2023-03-21T09:41:35;100876.94;;;13.79;69.81
4981;BME280;2507;50.392;7.482;2023-03-21T09:47:13;100879.72;;;13.55;70.54
4981;BME280;2507;50.392;7.482;2023-03-21T09:50:10;100878.28;;;13.29;71.72
4981;BME280;2507;50.392;7.482;2023-03-21T09:55:22;100881.25;;;13.24;73.25
4981;BME280;2507;50.392;7.482;2023-03-21T10:00:38;100878.63;;;12.79;74.69
4981;BME280;2507;50.392;7.482;2023-03-21T10:03:18;100877.06;;;12.65;75.64
4981;BME280;2507;50.392;7.482;2023-03-21T10:05:44;100880.44;;;12.89;74.09
4981;BME280;2507;50.392;7.482;2023-03-21T10:08:32;100883.66;;;12.82;74.29
4981;BME280;2507;50.392;7.482;2023-03-21T10:11:10;100882.53;;;12.62;75.20
4981;BME280;2507;50.392;7.482;2023-03-21T10:13:41;100880.41;;;12.67;75.95
4981;BME280;2507;50.392;7.482;2023-03-21T10:16:17;100872.03;;;13.08;74.36
4981;BME280;2507;50.392;7.482;2023-03-21T10:18:44;100873.38;;;12.90;74.86
4981;BME280;2507;50.392;7.482;2023-03-21T10:21:19;100867.13;;;13.03;75.46
4981;BME280;2507;50.392;7.482;2023-03-21T10:23:45;100864.88;;;13.43;73.24
4981;BME280;2507;50.392;7.482;2023-03-21T10:26:11;100865.44;;;13.69;71.82
4981;BME280;2507;50.392;7.482;2023-03-21T10:28:39;100864.41;;;13.38;72.63
4981;BME280;2507;50.392;7.482;2023-03-21T10:31:08;100857.28;;;13.61;72.44
4981;BME280;2507;50.392;7.482;2023-03-21T10:33:37;100854.16;;;13.89;70.76
4981;BME280;2507;50.392;7.482;2023-03-21T10:36:12;100856.13;;;13.96;70.58
4981;BME280;2507;50.392;7.482;2023-03-21T10:38:46;100844.97;;;14.04;70.50
4981;BME280;2507;50.392;7.482;2023-03-21T10:41:12;100847.59;;;14.04;70.59
4981;BME280;2507;50.392;7.482;2023-03-21T10:43:41;100841.41;;;14.37;69.95
4981;BME280;2507;50.392;7.482;2023-03-21T10:46:10;100840.72;;;14.23;71.06
4981;BME280;2507;50.392;7.482;2023-03-21T10:48:39;100833.06;;;14.52;70.24
4981;BME280;2507;50.392;7.482;2023-03-21T10:51:07;100832.19;;;14.20;71.60
4981;BME280;2507;50.392;7.482;2023-03-21T10:53:48;100826.22;;;14.18;71.77
4981;BME280;2507;50.392;7.482;2023-03-21T10:56:15;100821.31;;;14.13;71.55
4981;BME280;2507;50.392;7.482;2023-03-21T10:58:43;100819.91;;;13.67;74.30
4981;BME280;2507;50.392;7.482;2023-03-21T11:01:13;100823.44;;;13.77;74.06
4981;BME280;2507;50.392;7.482;2023-03-21T11:03:43;100820.19;;;13.95;72.57
4981;BME280;2507;50.392;7.482;2023-03-21T11:06:25;100826.75;;;14.01;70.97
4981;BME280;2507;50.392;7.482;2023-03-21T11:09:11;100820.44;;;13.92;71.25
4981;BME280;2507;50.392;7.482;2023-03-21T11:11:40;100819.50;;;13.82;71.68
4981;BME280;2507;50.392;7.482;2023-03-21T11:14:12;100811.06;;;14.20;70.63
4981;BME280;2507;50.392;7.482;2023-03-21T11:16:48;100807.22;;;14.35;70.93
4981;BME280;2507;50.392;7.482;2023-03-21T11:19:29;100792.84;;;14.69;70.15
4981;BME280;2507;50.392;7.482;2023-03-21T11:21:57;100804.69;;;14.95;69.89
4981;BME280;2507;50.392;7.482;2023-03-21T11:24:23;100798.13;;;14.90;69.78
4981;BME280;2507;50.392;7.482;2023-03-21T11:26:53;100800.28;;;15.05;68.84
4981;BME280;2507;50.392;7.482;2023-03-21T11:29:38;100794.47;;;15.11;68.11
4981;BME280;2507;50.392;7.482;2023-03-21T11:32:18;100792.25;;;14.86;69.83
4981;BME280;2507;50.392;7.482;2023-03-21T11:34:56;100786.00;;;14.87;69.59
4981;BME280;2507;50.392;7.482;2023-03-21T11:37:31;100776.41;;;14.66;70.47
4981;BME280;2507;50.392;7.482;2023-03-21T11:42:46;100768.91;;;14.61;70.26
4981;BME280;2507;50.392;7.482;2023-03-21T11:47:44;100763.94;;;14.26;70.85
4981;BME280;2507;50.392;7.482;2023-03-21T11:50:17;100764.03;;;14.25;69.84
4981;BME280;2507;50.392;7.482;2023-03-21T11:52:52;100753.00;;;14.20;70.95
4981;BME280;2507;50.392;7.482;2023-03-21T11:55:26;100750.25;;;14.32;71.50
4981;BME280;2507;50.392;7.482;2023-03-21T11:58:17;100742.19;;;14.34;72.18
4981;BME280;2507;50.392;7.482;2023-03-21T12:00:51;100743.41;;;14.30;72.91
4981;BME280;2507;50.392;7.482;2023-03-21T12:06:29;100730.41;;;14.06;73.71
4981;BME280;2507;50.392;7.482;2023-03-21T12:09:03;100733.00;;;14.17;74.16
4981;BME280;2507;50.392;7.482;2023-03-21T12:14:14;100720.38;;;14.21;73.87
4981;BME280;2507;50.392;7.482;2023-03-21T12:16:55;100720.81;;;14.26;73.69
4981;BME280;2507;50.392;7.482;2023-03-21T12:19:50;100710.91;;;14.18;73.82
4981;BME280;2507;50.392;7.482;2023-03-21T12:22:34;100710.88;;;14.29;74.34
4981;BME280;2507;50.392;7.482;2023-03-21T12:25:10;100704.88;;;14.27;73.49
4981;BME280;2507;50.392;7.482;2023-03-21T12:30:30;100698.53;;;14.30;73.28
4981;BME280;2507;50.392;7.482;2023-03-21T12:38:17;100703.25;;;14.57;72.28
4981;BME280;2507;50.392;7.482;2023-03-21T12:46:30;100699.31;;;14.51;72.53
4981;BME280;2507;50.392;7.482;2023-03-21T12:49:01;100690.59;;;14.51;72.96
4981;BME280;2507;50.392;7.482;2023-03-21T12:51:36;100678.66;;;14.56;73.17
4981;BME280;2507;50.392;7.482;2023-03-21T12:57:25;100665.13;;;14.80;70.95
4981;BME280;2507;50.392;7.482;2023-03-21T13:00:02;100657.81;;;14.63;71.34
4981;BME280;2507;50.392;7.482;2023-03-21T13:02:58;100636.22;;;14.48;72.56
4981;BME280;2507;50.392;7.482;2023-03-21T13:05:29;100631.78;;;14.58;72.80
4981;BME280;2507;50.392;7.482;2023-03-21T13:10:47;100615.47;;;14.34;73.77
4981;BME280;2507;50.392;7.482;2023-03-21T13:16:05;100632.53;;;14.30;72.71
4981;BME280;2507;50.392;7.482;2023-03-21T13:18:43;100647.06;;;14.04;74.31
4981;BME280;2507;50.392;7.482;2023-03-21T13:21:21;100632.72;;;14.38;72.24
4981;BME280;2507;50.392;7.482;2023-03-21T13:24:14;100639.38;;;14.42;73.20
4981;BME280;2507;50.392;7.482;2023-03-21T13:26:44;100630.81;;;14.50;72.39
4981;BME280;2507;50.392;7.482;2023-03-21T13:29:22;100651.97;;;14.59;73.64
4981;BME280;2507;50.392;7.482;2023-03-21T13:31:51;100648.47;;;14.89;71.29
4981;BME280;2507;50.392;7.482;2023-03-21T13:34:20;100647.91;;;14.85;72.20
4981;BME280;2507;50.392;7.482;2023-03-21T13:36:47;100645.72;;;15.00;72.12
4981;BME280;2507;50.392;7.482;2023-03-21T13:39:24;100660.22;;;15.24;71.46
4981;BME280;2507;50.392;7.482;2023-03-21T13:41:50;100653.34;;;15.52;67.36
4981;BME280;2507;50.392;7.482;2023-03-21T13:46:59;100638.53;;;15.40;68.62
4981;BME280;2507;50.392;7.482;2023-03-21T13:49:32;100640.50;;;15.48;68.48
4981;BME280;2507;50.392;7.482;2023-03-21T13:57:03;100624.78;;;15.56;67.04
4981;BME280;2507;50.392;7.482;2023-03-21T14:02:11;100636.06;;;15.67;66.55
4981;BME280;2507;50.392;7.482;2023-03-21T14:04:44;100631.19;;;15.63;66.73
4981;BME280;2507;50.392;7.482;2023-03-21T14:09:38;100612.97;;;15.60;66.89
4981;BME280;2507;50.392;7.482;2023-03-21T14:12:08;100610.44;;;15.68;66.52
4981;BME280;2507;50.392;7.482;2023-03-21T14:14:42;100612.41;;;15.56;66.92
4981;BME280;2507;50.392;7.482;2023-03-21T14:17:29;100615.56;;;15.79;66.89
4981;BME280;2507;50.392;7.482;2023-03-21T14:20:00;100613.38;;;15.74;66.13
4981;BME280;2507;50.392;7.482;2023-03-21T14:22:31;100612.78;;;15.90;65.22
4981;BME280;2507;50.392;7.482;2023-03-21T14:25:01;100607.25;;;16.20;64.38
4981;BME280;2507;50.392;7.482;2023-03-21T14:27:30;100614.22;;;16.21;64.60
4981;BME280;2507;50.392;7.482;2023-03-21T14:29:57;100614.84;;;16.05;64.85
4981;BME280;2507;50.392;7.482;2023-03-21T14:32:25;100609.84;;;15.93;64.67
4981;BME280;2507;50.392;7.482;2023-03-21T14:34:53;100612.09;;;15.78;65.41
4981;BME280;2507;50.392;7.482;2023-03-21T14:37:31;100595.94;;;15.62;66.57
4981;BME280;2507;50.392;7.482;2023-03-21T14:40:03;100572.00;;;15.25;67.10
4981;BME280;2507;50.392;7.482;2023-03-21T14:42:34;100574.09;;;15.12;67.96
4981;BME280;2507;50.392;7.482;2023-03-21T14:45:19;100572.84;;;15.07;68.61
4981;BME280;2507;50.392;7.482;2023-03-21T14:48:07;100574.38;;;15.00;69.04